createdAt,value
2018-07-14T00:01:00.748Z,0
2018-07-14T00:02:10.614Z,0
2018-07-14T00:03:20.697Z,0
2018-07-14T00:04:30.770Z,0
2018-07-14T00:05:40.852Z,0
2018-07-14T00:06:50.969Z,0
2018-07-14T00:08:01.099Z,0
2018-07-14T00:09:10.915Z,0
2018-07-14T00:10:20.716Z,0
2018-07-14T00:11:30.492Z,0
2018-07-14T00:12:40.601Z,0
2018-07-14T00:13:50.736Z,0
2018-07-14T00:15:00.810Z,0
2018-07-14T00:16:10.347Z,0
2018-07-14T00:17:20.133Z,0
2018-07-14T00:18:29.925Z,0
2018-07-14T00:19:40.061Z,0
2018-07-14T00:20:49.873Z,0
2018-07-14T00:21:59.676Z,0
2018-07-14T00:23:09.791Z,0
2018-07-14T00:24:19.723Z,0
2018-07-14T00:25:29.569Z,0
2018-07-14T00:26:39.633Z,0
2018-07-14T00:27:49.721Z,0
2018-07-14T00:28:59.577Z,0
2018-07-14T00:30:09.152Z,0
2018-07-14T00:31:19.272Z,0
2018-07-14T00:32:28.793Z,0
2018-07-14T00:33:38.606Z,0
2018-07-14T00:34:48.685Z,0
2018-07-14T00:35:58.741Z,0
2018-07-14T00:37:08.584Z,0
2018-07-14T00:38:18.660Z,0
2018-07-14T00:39:28.730Z,0
2018-07-14T00:40:38.573Z,0
2018-07-14T00:41:48.663Z,0
2018-07-14T00:42:58.514Z,0
2018-07-14T00:44:07.494Z,0
2018-07-14T00:45:17.296Z,0
2018-07-14T00:46:27.100Z,0
2018-07-14T00:47:36.930Z,0
2018-07-14T00:48:47.042Z,0
2018-07-14T00:49:57.105Z,0
2018-07-14T00:51:06.898Z,0
2018-07-14T00:52:16.417Z,0
2018-07-14T00:53:26.476Z,0
2018-07-14T00:54:36.582Z,0
2018-07-14T00:55:46.133Z,0
2018-07-14T00:56:56.212Z,0
2018-07-14T00:58:06.266Z,0
2018-07-14T00:59:16.324Z,0
2018-07-14T01:00:25.913Z,0
2018-07-14T01:01:35.150Z,0
2018-07-14T01:02:45.233Z,0
2018-07-14T01:03:55.376Z,0
2018-07-14T01:05:05.453Z,0
2018-07-14T01:06:15.564Z,0
2018-07-14T01:07:25.615Z,0
2018-07-14T01:08:35.425Z,0
2018-07-14T01:09:45.508Z,0
2018-07-14T01:10:55.579Z,0
2018-07-14T01:12:05.431Z,0
2018-07-14T01:13:14.970Z,0
2018-07-14T01:14:24.762Z,0
2018-07-14T01:15:34.297Z,0
2018-07-14T01:16:44.100Z,0
2018-07-14T01:17:54.651Z,0
2018-07-14T01:19:04.523Z,0
2018-07-14T01:20:14.589Z,0
2018-07-14T01:21:24.408Z,0
2018-07-14T01:22:34.212Z,0
2018-07-14T01:23:47.712Z,0
2018-07-14T01:24:57.773Z,0
2018-07-14T01:26:07.319Z,0
2018-07-14T01:27:16.848Z,0
2018-07-14T01:28:26.921Z,0
2018-07-14T01:29:37.043Z,0
2018-07-14T01:30:47.130Z,0
2018-07-14T01:31:56.925Z,0
2018-07-14T01:33:06.461Z,0
2018-07-14T01:34:16.577Z,0
2018-07-14T01:35:26.690Z,0
2018-07-14T01:36:36.744Z,0
2018-07-14T01:37:46.801Z,0
2018-07-14T01:38:56.878Z,0
2018-07-14T01:40:06.684Z,0
2018-07-14T01:41:16.812Z,0
2018-07-14T01:42:26.602Z,0
2018-07-14T01:43:36.655Z,0
2018-07-14T01:44:46.452Z,0
2018-07-14T01:45:55.704Z,0
2018-07-14T01:47:05.286Z,0
2018-07-14T01:48:14.820Z,0
2018-07-14T01:49:24.623Z,0
2018-07-14T01:50:34.685Z,0
2018-07-14T01:51:44.279Z,0
2018-07-14T01:52:54.410Z,0
2018-07-14T01:54:03.670Z,0
2018-07-14T01:55:13.730Z,0
2018-07-14T01:56:23.529Z,0
2018-07-14T01:57:33.602Z,0
2018-07-14T01:58:43.446Z,0
2018-07-14T01:59:53.511Z,0
2018-07-14T02:01:03.589Z,0
2018-07-14T02:02:13.396Z,0
2018-07-14T02:03:23.189Z,0
2018-07-14T02:04:33.035Z,0
2018-07-14T02:05:43.120Z,0
2018-07-14T02:06:53.181Z,5
2018-07-14T02:08:02.961Z,5
2018-07-14T02:09:12.757Z,5
2018-07-14T02:10:22.883Z,5
2018-07-14T02:11:32.713Z,5
2018-07-14T02:12:42.794Z,5
2018-07-14T02:13:52.308Z,5
2018-07-14T02:15:02.381Z,5
2018-07-14T02:16:11.701Z,5
2018-07-14T02:17:21.782Z,5
2018-07-14T02:18:31.602Z,5
2018-07-14T02:19:41.133Z,5
2018-07-14T02:20:50.657Z,5
2018-07-14T02:22:00.778Z,5
2018-07-14T02:23:10.851Z,10
2018-07-14T02:24:20.948Z,10
2018-07-14T02:25:31.022Z,10
2018-07-14T02:26:40.836Z,10
2018-07-14T02:27:50.956Z,10
2018-07-14T02:29:00.742Z,10
2018-07-14T02:30:10.568Z,15
2018-07-14T02:31:20.661Z,15
2018-07-14T02:32:30.750Z,15
2018-07-14T02:33:40.321Z,15
2018-07-14T02:34:50.402Z,15
2018-07-14T02:36:00.477Z,15
2018-07-14T02:37:10.556Z,20
2018-07-14T02:38:19.844Z,20
2018-07-14T02:39:29.980Z,20
2018-07-14T02:40:40.048Z,20
2018-07-14T02:41:50.124Z,25
2018-07-14T02:42:59.661Z,25
2018-07-14T02:44:09.215Z,25
2018-07-14T02:45:19.340Z,25
2018-07-14T02:46:29.431Z,25
2018-07-14T02:47:39.520Z,30
2018-07-14T02:48:49.584Z,30
2018-07-14T02:49:59.424Z,30
2018-07-14T02:51:09.292Z,30
2018-07-14T02:52:18.833Z,35
2018-07-14T02:53:28.914Z,35
2018-07-14T02:54:38.985Z,35
2018-07-14T02:55:48.242Z,40
2018-07-14T02:56:58.367Z,40
2018-07-14T02:58:08.439Z,40
2018-07-14T02:59:18.500Z,40
2018-07-14T03:03:41.112Z,50
2018-07-14T03:04:50.926Z,50
2018-07-14T03:06:01.002Z,50
2018-07-14T03:07:11.085Z,50
2018-07-14T03:08:21.181Z,50
2018-07-14T03:09:31.066Z,50
2018-07-14T03:10:40.604Z,50
2018-07-14T03:11:50.677Z,55
2018-07-14T03:13:01.044Z,55
2018-07-14T03:14:10.879Z,55
2018-07-14T03:15:20.445Z,55
2018-07-14T03:16:30.526Z,55
2018-07-14T03:17:40.610Z,60
2018-07-14T03:18:50.431Z,60
2018-07-14T03:20:00.222Z,55
2018-07-14T03:21:10.357Z,55
2018-07-14T03:22:20.429Z,60
2018-07-14T03:23:30.051Z,55
2018-07-14T03:24:40.160Z,55
2018-07-14T03:25:50.232Z,55
2018-07-14T03:27:00.347Z,55
2018-07-14T03:28:10.435Z,55
2018-07-14T03:29:20.513Z,60
2018-07-14T03:30:30.577Z,60
2018-07-14T03:31:40.672Z,60
2018-07-14T03:32:49.986Z,65
2018-07-14T03:33:59.770Z,70
2018-07-14T03:35:09.314Z,70
2018-07-14T03:36:19.114Z,70
2018-07-14T03:37:29.188Z,70
2018-07-14T03:38:39.103Z,75
2018-07-14T03:39:49.172Z,75
2018-07-14T03:40:59.008Z,75
2018-07-14T03:42:09.223Z,80
2018-07-14T03:43:19.045Z,80
2018-07-14T03:44:29.166Z,80
2018-07-14T03:45:39.237Z,80
2018-07-14T03:46:49.310Z,80
2018-07-14T03:47:59.382Z,85
2018-07-14T03:49:09.444Z,85
2018-07-14T03:50:19.017Z,85
2018-07-14T03:51:29.089Z,90
2018-07-14T03:52:38.888Z,90
2018-07-14T03:53:48.417Z,90
2018-07-14T03:54:58.216Z,90
2018-07-14T03:56:08.351Z,90
2018-07-14T03:57:18.444Z,95
2018-07-14T03:58:28.524Z,95
2018-07-14T03:59:38.632Z,95
2018-07-14T04:00:48.711Z,95
2018-07-14T04:01:58.573Z,95
2018-07-14T04:03:08.362Z,100
2018-07-14T04:04:18.167Z,100
2018-07-14T04:05:27.695Z,100
2018-07-14T04:06:38.322Z,100
2018-07-14T04:07:48.211Z,105
2018-07-14T04:08:58.313Z,105
2018-07-14T04:10:08.109Z,105
2018-07-14T04:11:17.638Z,105
2018-07-14T04:12:27.453Z,105
2018-07-14T04:13:37.298Z,105
2018-07-14T04:14:47.736Z,110
2018-07-14T04:15:57.304Z,110
2018-07-14T04:17:07.386Z,110
2018-07-14T04:18:17.466Z,110
2018-07-14T04:19:27.591Z,110
2018-07-14T04:20:37.655Z,110
2018-07-14T04:21:47.758Z,115
2018-07-14T04:22:57.829Z,115
2018-07-14T04:24:07.622Z,115
2018-07-14T04:25:17.495Z,115
2018-07-14T04:26:27.619Z,120
2018-07-14T04:27:37.415Z,120
2018-07-14T04:28:47.508Z,125
2018-07-14T04:29:57.312Z,125
2018-07-14T04:31:06.894Z,130
2018-07-14T04:32:16.427Z,130
2018-07-14T04:33:26.205Z,130
2018-07-14T04:34:36.029Z,130
2018-07-14T04:35:46.096Z,130
2018-07-14T04:36:55.689Z,130
2018-07-14T04:38:05.226Z,135
2018-07-14T04:39:15.295Z,145
2018-07-14T04:40:25.088Z,135
2018-07-14T04:41:35.148Z,145
2018-07-14T04:42:45.298Z,145
2018-07-14T04:43:55.410Z,140
2018-07-14T04:45:05.495Z,140
2018-07-14T04:46:15.282Z,140
2018-07-14T04:47:25.361Z,150
2018-07-14T04:48:34.954Z,155
2018-07-14T04:49:44.770Z,150
2018-07-14T04:50:54.580Z,150
2018-07-14T04:52:04.667Z,150
2018-07-14T04:53:14.476Z,150
2018-07-14T04:54:24.623Z,150
2018-07-14T04:55:34.708Z,150
2018-07-14T04:56:44.795Z,155
2018-07-14T04:57:54.879Z,155
2018-07-14T04:59:04.424Z,160
2018-07-14T05:00:14.550Z,165
2018-07-14T05:01:23.803Z,175
2018-07-14T05:02:33.603Z,185
2018-07-14T05:03:43.695Z,180
2018-07-14T05:04:53.489Z,175
2018-07-14T05:06:03.063Z,185
2018-07-14T05:07:12.853Z,195
2018-07-14T05:08:22.920Z,200
2018-07-14T05:09:32.717Z,200
2018-07-14T05:10:42.774Z,205
2018-07-14T05:11:52.898Z,210
2018-07-14T05:13:02.973Z,215
2018-07-14T05:14:12.781Z,220
2018-07-14T05:15:22.345Z,220
2018-07-14T05:16:32.148Z,225
2018-07-14T05:17:42.283Z,225
2018-07-14T05:18:52.351Z,230
2018-07-14T05:20:02.159Z,230
2018-07-14T05:21:11.961Z,235
2018-07-14T05:22:21.772Z,235
2018-07-14T05:23:31.357Z,235
2018-07-14T05:24:41.175Z,240
2018-07-14T05:25:51.010Z,240
2018-07-14T05:27:00.790Z,250
2018-07-14T05:28:10.311Z,250
2018-07-14T05:29:20.442Z,250
2018-07-14T05:30:30.508Z,255
2018-07-14T05:31:40.606Z,255
2018-07-14T05:32:50.683Z,255
2018-07-14T05:34:00.748Z,250
2018-07-14T05:35:10.608Z,250
2018-07-14T05:36:20.145Z,240
2018-07-14T05:37:29.947Z,230
2018-07-14T05:38:39.202Z,210
2018-07-14T05:39:48.199Z,200
2018-07-14T05:40:58.331Z,195
2018-07-14T05:42:08.148Z,190
2018-07-14T05:43:17.939Z,185
2018-07-14T05:44:27.475Z,185
2018-07-14T05:45:37.063Z,180
2018-07-14T05:46:47.200Z,180
2018-07-14T05:47:56.988Z,175
2018-07-14T05:49:06.784Z,175
2018-07-14T05:50:16.862Z,175
2018-07-14T05:51:26.650Z,170
2018-07-14T05:52:36.777Z,170
2018-07-14T05:53:46.865Z,165
2018-07-14T05:54:56.925Z,160
2018-07-14T05:56:07.008Z,160
2018-07-14T05:57:17.095Z,155
2018-07-14T05:58:26.942Z,150
2018-07-14T05:59:37.021Z,150
2018-07-14T06:00:46.538Z,145
2018-07-14T06:01:56.322Z,145
2018-07-14T06:03:06.123Z,145
2018-07-14T06:04:16.236Z,145
2018-07-14T06:05:26.056Z,145
2018-07-14T06:06:35.886Z,145
2018-07-14T06:07:46.117Z,145
2018-07-14T06:08:56.248Z,145
2018-07-14T06:10:06.116Z,145
2018-07-14T06:11:16.199Z,155
2018-07-14T06:12:26.272Z,150
2018-07-14T06:13:36.353Z,150
2018-07-14T06:14:46.145Z,155
2018-07-14T06:15:56.282Z,155
2018-07-14T06:17:06.102Z,155
2018-07-14T06:18:15.732Z,160
2018-07-14T06:19:25.565Z,160
2018-07-14T06:20:35.772Z,160
2018-07-14T06:21:45.675Z,160
2018-07-14T06:22:55.463Z,165
2018-07-14T06:24:05.551Z,165
2018-07-14T06:25:15.409Z,175
2018-07-14T06:26:24.665Z,180
2018-07-14T06:27:34.774Z,185
2018-07-14T06:28:44.571Z,185
2018-07-14T06:29:54.664Z,185
2018-07-14T06:31:04.450Z,185
2018-07-14T06:32:14.346Z,190
2018-07-14T06:33:24.481Z,190
2018-07-14T06:34:34.017Z,195
2018-07-14T06:35:43.540Z,195
2018-07-14T06:36:53.357Z,195
2018-07-14T06:38:03.388Z,200
2018-07-14T06:39:13.775Z,200
2018-07-14T06:40:23.536Z,195
2018-07-14T06:41:33.377Z,195
2018-07-14T06:42:43.449Z,195
2018-07-14T06:43:53.232Z,190
2018-07-14T06:45:03.506Z,190
2018-07-14T06:46:13.588Z,190
2018-07-14T06:47:23.398Z,185
2018-07-14T06:48:33.479Z,190
2018-07-14T06:49:43.613Z,190
2018-07-14T06:50:52.908Z,215
2018-07-14T06:52:02.981Z,220
2018-07-14T06:53:12.775Z,210
2018-07-14T06:54:22.567Z,215
2018-07-14T06:55:32.206Z,215
2018-07-14T06:56:42.069Z,215
2018-07-14T06:57:52.148Z,225
2018-07-14T06:59:01.673Z,225
2018-07-14T07:00:11.479Z,230
2018-07-14T07:01:21.004Z,230
2018-07-14T07:02:31.124Z,220
2018-07-14T07:03:40.925Z,210
2018-07-14T07:04:50.743Z,210
2018-07-14T07:06:00.553Z,210
2018-07-14T07:07:10.348Z,215
2018-07-14T07:08:20.203Z,220
2018-07-14T07:09:30.020Z,225
2018-07-14T07:10:39.553Z,230
2018-07-14T07:11:49.352Z,240
2018-07-14T07:12:59.146Z,250
2018-07-14T07:14:09.056Z,255
2018-07-14T07:15:19.136Z,250
2018-07-14T07:16:29.210Z,245
2018-07-14T07:17:39.296Z,245
2018-07-14T07:18:49.101Z,250
2018-07-14T07:19:59.215Z,245
2018-07-14T07:21:09.312Z,240
2018-07-14T07:22:19.381Z,235
2018-07-14T07:23:29.451Z,240
2018-07-14T07:24:39.518Z,235
2018-07-14T07:25:49.645Z,235
2018-07-14T07:26:59.715Z,230
2018-07-14T07:28:09.773Z,230
2018-07-14T07:29:19.835Z,230
2018-07-14T07:30:29.624Z,230
2018-07-14T07:31:39.746Z,230
2018-07-14T07:32:49.819Z,230
2018-07-14T07:34:00.197Z,230
2018-07-14T07:35:10.158Z,235
2018-07-14T07:36:20.289Z,235
2018-07-14T07:37:30.139Z,235
2018-07-14T07:38:40.200Z,240
2018-07-14T07:39:50.267Z,240
2018-07-14T07:41:00.081Z,245
2018-07-14T07:42:09.943Z,250
2018-07-14T07:43:20.302Z,255
2018-07-14T07:44:30.158Z,260
2018-07-14T07:45:40.251Z,270
2018-07-14T07:46:50.346Z,280
2018-07-14T07:48:00.422Z,280
2018-07-14T07:49:10.562Z,290
2018-07-14T07:50:20.652Z,300
2018-07-14T07:51:30.744Z,305
2018-07-14T07:52:40.802Z,305
2018-07-14T07:53:50.878Z,305
2018-07-14T07:55:00.720Z,305
2018-07-14T07:56:10.791Z,305
2018-07-14T07:57:20.867Z,305
2018-07-14T07:58:30.960Z,305
2018-07-14T07:59:40.777Z,305
2018-07-14T08:00:50.896Z,305
2018-07-14T08:02:00.166Z,300
2018-07-14T08:03:10.237Z,295
2018-07-14T08:04:19.780Z,290
2018-07-14T08:05:29.591Z,290
2018-07-14T08:06:39.458Z,285
2018-07-14T08:07:49.538Z,280
2018-07-14T08:08:59.639Z,275
2018-07-14T08:10:09.715Z,270
2018-07-14T08:11:19.265Z,265
2018-07-14T08:12:29.123Z,260
2018-07-14T08:13:38.921Z,255
2018-07-14T08:14:48.464Z,250
2018-07-14T08:15:58.378Z,250
2018-07-14T08:17:07.928Z,250
2018-07-14T08:18:17.507Z,250
2018-07-14T08:19:27.582Z,250
2018-07-14T08:20:37.668Z,250
2018-07-14T08:21:47.190Z,255
2018-07-14T08:22:58.042Z,250
2018-07-14T08:24:07.644Z,250
2018-07-14T08:25:17.701Z,250
2018-07-14T08:26:27.800Z,250
2018-07-14T08:27:37.898Z,250
2018-07-14T08:28:47.722Z,255
2018-07-14T08:29:57.566Z,255
2018-07-14T08:31:07.101Z,255
2018-07-14T08:32:17.315Z,255
2018-07-14T08:33:27.391Z,255
2018-07-14T08:34:37.221Z,255
2018-07-14T08:35:47.089Z,255
2018-07-14T08:36:56.878Z,255
2018-07-14T08:38:06.581Z,255
2018-07-14T08:39:16.753Z,255
2018-07-14T08:40:26.855Z,250
2018-07-14T08:41:37.005Z,250
2018-07-14T08:42:47.088Z,250
2018-07-14T08:43:57.359Z,255
2018-07-14T08:45:07.168Z,255
2018-07-14T08:46:16.981Z,260
2018-07-14T08:47:27.118Z,265
2018-07-14T08:48:36.931Z,260
2018-07-14T08:49:47.016Z,260
2018-07-14T08:50:56.806Z,260
2018-07-14T08:52:06.053Z,260
2018-07-14T08:53:15.907Z,260
2018-07-14T08:54:25.981Z,260
2018-07-14T08:55:35.767Z,265
2018-07-14T08:56:45.839Z,270
2018-07-14T08:57:55.914Z,270
2018-07-14T08:59:06.035Z,275
2018-07-14T09:00:15.310Z,270
2018-07-14T09:01:25.415Z,270
2018-07-14T09:02:35.511Z,270
2018-07-14T09:03:46.050Z,270
2018-07-14T09:04:56.166Z,270
2018-07-14T09:06:06.244Z,270
2018-07-14T09:07:16.334Z,270
2018-07-14T09:08:25.863Z,270
2018-07-14T09:09:35.669Z,270
2018-07-14T09:10:45.776Z,270
2018-07-14T09:11:55.913Z,270
2018-07-14T09:13:05.760Z,270
2018-07-14T09:14:15.837Z,270
2018-07-14T09:15:25.651Z,270
2018-07-14T09:16:35.897Z,275
2018-07-14T09:17:46.069Z,270
2018-07-14T09:18:55.614Z,270
2018-07-14T09:20:05.445Z,270
2018-07-14T09:21:15.592Z,270
2018-07-14T09:22:25.754Z,270
2018-07-14T09:23:35.557Z,270
2018-07-14T09:24:45.363Z,275
2018-07-14T09:25:55.422Z,275
2018-07-14T09:27:05.230Z,275
2018-07-14T09:28:15.096Z,275
2018-07-14T09:29:25.175Z,275
2018-07-14T09:30:34.715Z,275
2018-07-14T09:31:43.706Z,280
2018-07-14T09:32:53.243Z,280
2018-07-14T09:34:03.095Z,280
2018-07-14T09:35:12.912Z,285
2018-07-14T09:36:23.005Z,280
2018-07-14T09:37:33.077Z,280
2018-07-14T09:38:43.146Z,285
2018-07-14T09:39:52.733Z,285
2018-07-14T09:41:02.799Z,285
2018-07-14T09:42:12.610Z,285
2018-07-14T09:43:22.432Z,285
2018-07-14T09:44:32.379Z,285
2018-07-14T09:45:42.546Z,285
2018-07-14T09:46:52.622Z,285
2018-07-14T09:48:02.166Z,290
2018-07-14T09:49:11.982Z,290
2018-07-14T09:50:22.067Z,290
2018-07-14T09:51:31.975Z,290
2018-07-14T09:52:41.793Z,290
2018-07-14T09:53:51.865Z,300
2018-07-14T09:55:01.980Z,295
2018-07-14T09:56:11.530Z,300
2018-07-14T09:57:20.842Z,295
2018-07-14T09:58:30.933Z,295
2018-07-14T09:59:40.995Z,295
2018-07-14T10:00:51.057Z,300
2018-07-14T10:02:01.148Z,305
2018-07-14T10:03:10.722Z,300
2018-07-14T10:04:20.794Z,300
2018-07-14T10:05:30.866Z,300
2018-07-14T10:06:40.951Z,300
2018-07-14T10:07:50.761Z,305
2018-07-14T10:09:00.867Z,305
2018-07-14T10:10:11.498Z,305
2018-07-14T10:11:21.580Z,310
2018-07-14T10:12:31.661Z,310
2018-07-14T10:13:41.470Z,310
2018-07-14T10:14:51.675Z,315
2018-07-14T10:16:01.734Z,315
2018-07-14T10:17:11.580Z,315
2018-07-14T10:18:21.397Z,310
2018-07-14T10:19:31.201Z,310
2018-07-14T10:20:41.047Z,300
2018-07-14T10:21:50.583Z,260
2018-07-14T10:23:00.659Z,315
2018-07-14T10:24:10.746Z,315
2018-07-14T10:25:21.299Z,325
2018-07-14T10:26:31.634Z,325
2018-07-14T10:27:41.726Z,320
2018-07-14T10:28:51.274Z,325
2018-07-14T10:30:01.349Z,320
2018-07-14T10:31:11.419Z,320
2018-07-14T10:32:21.299Z,325
2018-07-14T10:33:31.131Z,330
2018-07-14T10:34:41.213Z,325
2018-07-14T10:35:51.312Z,330
2018-07-14T10:37:01.401Z,330
2018-07-14T10:38:11.250Z,305
2018-07-14T10:39:20.781Z,330
2018-07-14T10:40:30.871Z,330
2018-07-14T10:41:40.957Z,330
2018-07-14T10:42:51.024Z,330
2018-07-14T10:44:01.130Z,330
2018-07-14T10:45:10.685Z,330
2018-07-14T10:46:20.486Z,330
2018-07-14T10:47:29.760Z,330
2018-07-14T10:48:39.559Z,335
2018-07-14T10:49:49.195Z,335
2018-07-14T10:50:58.720Z,335
2018-07-14T10:52:08.796Z,335
2018-07-14T10:53:18.338Z,340
2018-07-14T10:54:27.884Z,340
2018-07-14T10:55:38.013Z,340
2018-07-14T10:56:48.081Z,340
2018-07-14T10:57:57.636Z,345
2018-07-14T10:59:07.149Z,345
2018-07-14T11:00:17.232Z,345
2018-07-14T11:01:27.354Z,350
2018-07-14T11:02:36.890Z,350
2018-07-14T11:03:46.699Z,350
2018-07-14T11:04:56.249Z,350
2018-07-14T11:06:06.069Z,350
2018-07-14T11:07:15.686Z,350
2018-07-14T11:08:25.767Z,350
2018-07-14T11:09:35.311Z,355
2018-07-14T11:10:45.398Z,355
2018-07-14T11:11:55.468Z,355
2018-07-14T11:13:05.606Z,355
2018-07-14T11:14:15.689Z,355
2018-07-14T11:15:25.778Z,355
2018-07-14T11:16:35.866Z,355
2018-07-14T11:17:46.055Z,360
2018-07-14T11:18:56.247Z,360
2018-07-14T11:20:06.058Z,360
2018-07-14T11:21:15.851Z,360
2018-07-14T11:22:25.929Z,360
2018-07-14T11:23:36.041Z,365
2018-07-14T11:24:45.887Z,365
2018-07-14T11:25:55.977Z,365
2018-07-14T11:27:05.509Z,365
2018-07-14T11:28:15.579Z,375
2018-07-14T11:29:25.664Z,375
2018-07-14T11:30:35.780Z,375
2018-07-14T11:31:45.605Z,380
2018-07-14T11:32:55.673Z,385
2018-07-14T11:34:05.753Z,390
2018-07-14T11:35:15.827Z,395
2018-07-14T11:36:25.947Z,400
2018-07-14T11:37:35.911Z,400
2018-07-14T11:38:45.722Z,460
2018-07-14T11:39:55.796Z,1565
2018-07-14T11:41:05.596Z,2540
2018-07-14T11:42:15.782Z,2495
2018-07-14T11:43:25.944Z,2630
2018-07-14T11:44:36.011Z,2565
2018-07-14T11:45:46.087Z,2585
2018-07-14T11:46:55.629Z,2720
2018-07-14T11:48:06.327Z,2775
2018-07-14T11:49:16.142Z,2335
2018-07-14T11:50:25.683Z,2010
2018-07-14T11:51:35.766Z,2070
2018-07-14T11:52:45.578Z,2285
2018-07-14T11:53:55.717Z,2500
2018-07-14T11:55:05.796Z,2725
2018-07-14T11:56:15.889Z,2785
2018-07-14T11:57:25.963Z,2580
2018-07-14T11:58:35.490Z,2695
2018-07-14T11:59:45.634Z,3050
2018-07-14T12:00:55.449Z,2905
2018-07-14T12:02:05.516Z,2735
2018-07-14T12:03:15.617Z,2925
2018-07-14T12:04:25.178Z,2920
2018-07-14T12:05:35.314Z,460
2018-07-14T12:06:45.119Z,2870
2018-07-14T12:07:54.941Z,2170
2018-07-14T12:09:04.482Z,2550
2018-07-14T12:10:14.566Z,2425
2018-07-14T12:11:24.423Z,1985
2018-07-14T12:12:34.523Z,2610
2018-07-14T12:13:44.074Z,575
2018-07-14T12:14:54.153Z,570
2018-07-14T12:16:03.986Z,2975
2018-07-14T12:17:13.598Z,2870
2018-07-14T12:18:23.124Z,2895
2018-07-14T12:19:32.660Z,2875
2018-07-14T12:20:42.739Z,2875
2018-07-14T12:21:52.822Z,2915
2018-07-14T12:23:02.704Z,2965
2018-07-14T12:24:12.244Z,2940
2018-07-14T12:25:22.333Z,2775
2018-07-14T12:26:32.474Z,2730
2018-07-14T12:27:42.665Z,2925
2018-07-14T12:28:52.815Z,2940
2018-07-14T12:30:03.032Z,2895
2018-07-14T12:31:12.315Z,2670
2018-07-14T12:32:22.137Z,2705
2018-07-14T12:33:31.964Z,2820
2018-07-14T12:34:41.824Z,950
2018-07-14T12:35:51.389Z,2425
2018-07-14T12:37:01.200Z,2710
2018-07-14T12:38:11.016Z,2810
2018-07-14T12:39:21.092Z,3055
2018-07-14T12:40:30.960Z,3110
2018-07-14T12:41:41.063Z,3030
2018-07-14T12:42:51.152Z,3070
2018-07-14T12:44:00.976Z,2945
2018-07-14T12:45:10.803Z,3030
2018-07-14T12:46:20.943Z,3040
2018-07-14T12:47:31.025Z,2955
2018-07-14T12:48:40.861Z,2935
2018-07-14T12:49:50.954Z,2835
2018-07-14T12:51:00.520Z,2800
2018-07-14T12:52:10.384Z,2785
2018-07-14T12:53:19.708Z,2805
2018-07-14T12:54:29.518Z,2685
2018-07-14T12:55:39.058Z,2650
2018-07-14T12:56:48.611Z,2725
2018-07-14T12:57:58.213Z,2670
2018-07-14T12:59:08.012Z,2760
2018-07-14T13:00:18.138Z,2610
2018-07-14T13:01:28.221Z,535
2018-07-14T13:02:38.303Z,2120
2018-07-14T13:03:48.425Z,2455
2018-07-14T13:04:58.497Z,2270
2018-07-14T13:06:08.320Z,2240
2018-07-14T13:07:18.410Z,2115
2018-07-14T13:08:28.231Z,2100
2018-07-14T13:09:37.837Z,2095
2018-07-14T13:10:47.924Z,1820
2018-07-14T13:11:57.755Z,2200
2018-07-14T13:13:07.565Z,2250
2018-07-14T13:14:17.647Z,2525
2018-07-14T13:15:27.506Z,3010
2018-07-14T13:16:37.342Z,1695
2018-07-14T13:17:47.424Z,490
2018-07-14T13:18:57.542Z,535
2018-07-14T13:20:07.367Z,3585
2018-07-14T13:21:17.504Z,3420
2018-07-14T13:22:27.586Z,3465
2018-07-14T13:23:37.657Z,3410
2018-07-14T13:24:47.767Z,695
2018-07-14T13:25:57.911Z,2365
2018-07-14T13:27:07.522Z,580
2018-07-14T13:28:17.347Z,560
2018-07-14T13:29:27.171Z,610
2018-07-14T13:30:36.990Z,3170
2018-07-14T13:31:46.552Z,3790
2018-07-14T13:32:56.662Z,3705
2018-07-14T13:34:06.196Z,3485
2018-07-14T13:35:16.024Z,3370
2018-07-14T13:36:26.399Z,3715
2018-07-14T13:37:35.913Z,3950
2018-07-14T13:38:56.379Z,3825
2018-07-14T13:40:06.580Z,3520
2018-07-14T13:41:16.727Z,3495
2018-07-14T13:42:26.285Z,3595
2018-07-14T13:43:36.112Z,3610
2018-07-14T13:44:45.983Z,3810
2018-07-14T13:45:56.077Z,630
2018-07-14T13:47:06.174Z,695
2018-07-14T13:48:15.720Z,3520
2018-07-14T13:49:25.804Z,640
2018-07-14T13:50:35.943Z,1880
2018-07-14T13:51:46.039Z,3530
2018-07-14T13:52:56.155Z,2675
2018-07-14T13:54:06.242Z,770
2018-07-14T13:55:16.059Z,720
2018-07-14T13:56:25.927Z,695
2018-07-14T13:57:36.031Z,3595
2018-07-14T13:58:45.861Z,3140
2018-07-14T13:59:55.678Z,3455
2018-07-14T14:01:05.793Z,3490
2018-07-14T14:02:15.933Z,3525
2018-07-14T14:03:26.029Z,3665
2018-07-14T14:04:35.571Z,3540
2018-07-14T14:05:45.423Z,3475
2018-07-14T14:06:55.504Z,3405
2018-07-14T14:08:05.618Z,3495
2018-07-14T14:09:15.711Z,3545
2018-07-14T14:10:24.713Z,3550
2018-07-14T14:11:34.657Z,3390
2018-07-14T14:12:44.753Z,3425
2018-07-14T14:13:54.894Z,3435
2018-07-14T14:15:04.988Z,3450
2018-07-14T14:16:14.542Z,3365
2018-07-14T14:17:24.628Z,3370
2018-07-14T14:18:34.200Z,3240
2018-07-14T14:19:43.787Z,3190
2018-07-14T14:20:53.601Z,3375
2018-07-14T14:22:03.411Z,3410
2018-07-14T14:23:13.232Z,3270
2018-07-14T14:24:22.790Z,3160
2018-07-14T14:25:32.926Z,3200
2018-07-14T14:26:42.735Z,3210
2018-07-14T14:27:52.826Z,3355
2018-07-14T14:29:02.924Z,3280
2018-07-14T14:30:13.019Z,3260
2018-07-14T14:31:23.157Z,3180
2018-07-14T14:32:32.703Z,3305
2018-07-14T14:33:42.790Z,3245
2018-07-14T14:34:52.868Z,3315
2018-07-14T14:36:02.951Z,3350
2018-07-14T14:37:13.101Z,3240
2018-07-14T14:38:22.924Z,3150
2018-07-14T14:39:33.026Z,3115
2018-07-14T14:40:43.099Z,3175
2018-07-14T14:41:52.927Z,3080
2018-07-14T14:43:03.056Z,3000
2018-07-14T14:44:12.867Z,3035
2018-07-14T14:45:22.982Z,3010
2018-07-14T14:46:33.054Z,2975
2018-07-14T14:47:42.611Z,3005
2018-07-14T14:48:52.478Z,3005
2018-07-14T14:50:02.588Z,3010
2018-07-14T14:51:11.864Z,2985
2018-07-14T14:52:21.973Z,2980
2018-07-14T14:53:31.769Z,2890
2018-07-14T14:54:41.654Z,2805
2018-07-14T14:55:51.740Z,2785
2018-07-14T14:57:01.822Z,2690
2018-07-14T14:58:11.090Z,2715
2018-07-14T14:59:20.650Z,2880
2018-07-14T15:00:30.566Z,2830
2018-07-14T15:01:40.661Z,2815
2018-07-14T15:02:50.211Z,2880
2018-07-14T15:04:00.294Z,2940
2018-07-14T15:05:10.117Z,3000
2018-07-14T15:06:20.253Z,2780
2018-07-14T15:07:29.793Z,2925
2018-07-14T15:08:39.893Z,2985
2018-07-14T15:09:49.730Z,2920
2018-07-14T15:10:59.821Z,2840
2018-07-14T15:12:09.980Z,2800
2018-07-14T15:13:20.068Z,2860
2018-07-14T15:14:30.180Z,2860
2018-07-14T15:15:40.254Z,2745
2018-07-14T15:16:50.089Z,2925
2018-07-14T15:17:59.964Z,2915
2018-07-14T15:19:09.793Z,2815
2018-07-14T15:20:19.335Z,2820
2018-07-14T15:21:29.141Z,2695
2018-07-14T15:22:38.685Z,2750
2018-07-14T15:23:48.818Z,2775
2018-07-14T15:24:58.082Z,2830
2018-07-14T15:26:07.888Z,2880
2018-07-14T15:27:17.441Z,2815
2018-07-14T15:28:27.545Z,2765
2018-07-14T15:29:37.695Z,2755
2018-07-14T15:30:47.516Z,2845
2018-07-14T15:31:57.615Z,2800
2018-07-14T15:33:08.744Z,2780
2018-07-14T15:34:18.959Z,2760
2018-07-14T15:35:29.105Z,2795
2018-07-14T15:36:39.211Z,2750
2018-07-14T15:37:49.021Z,2725
2018-07-14T15:38:59.090Z,2725
2018-07-14T15:40:08.907Z,2805
2018-07-14T15:41:19.043Z,2690
2018-07-14T15:42:28.322Z,2620
2018-07-14T15:43:38.438Z,2740
2018-07-14T15:44:48.268Z,2725
2018-07-14T15:45:58.356Z,2710
2018-07-14T15:47:08.239Z,2710
2018-07-14T15:48:17.794Z,2650
2018-07-14T15:49:27.631Z,2710
2018-07-14T15:50:37.714Z,2690
2018-07-14T15:51:47.794Z,2715
2018-07-14T15:52:57.950Z,2805
2018-07-14T15:54:07.746Z,2660
2018-07-14T15:55:17.554Z,2650
2018-07-14T15:56:27.643Z,2710
2018-07-14T15:57:37.724Z,2665
2018-07-14T15:58:47.593Z,2620
2018-07-14T15:59:57.408Z,2550
2018-07-14T16:01:07.240Z,2435
2018-07-14T16:02:16.795Z,2445
2018-07-14T16:03:26.621Z,2380
2018-07-14T16:04:36.767Z,2605
2018-07-14T16:05:46.578Z,2565
2018-07-14T16:06:56.686Z,2355
2018-07-14T16:08:06.771Z,2360
2018-07-14T16:09:16.873Z,2470
2018-07-14T16:10:27.007Z,2475